Nearby METAR Reports

 

ENCN - Kristiansand/Kje, Norway
Distance from station: N 17km
Oppdatert: 07/12/2019 23:50
Hovedsaklig skyet
Hovedsaklig skyet
 Vind fra NØ
Vind: NØ 7 km/h
Temperatur: 1°C
Wind Chill: -2°C
Duggpunkt: 0°C
Fuktighet: 93%
Barometer: 997 hPa
Clouds: Hovedsaklig skyet
Visibility: 10 km
Cloud details: Few Clouds 945 m
Hovedsaklig skyet 1951 m
2019/12/07 22:50 ENCN 072250Z 04004KT 9999 FEW031 BKN064 01/M00 Q0997
EKSN - Sindal Airport, Denmark
Distance from station: ØSØ 145km
Oppdatert: 06/12/2019 13:50
NOT Current
Hovedsaklig skyet
Hovedsaklig skyet
 Vind fra SSV
Vind: SSV 20 km/h
Temperatur: 9°C
Wind Chill: 6°C
Duggpunkt: 8°C
Fuktighet: 94%
Barometer: 993 hPa
Clouds: Hovedsaklig skyet
Visibility: 8 km
Cloud details: Delvis skyet 183 m
Hovedsaklig skyet 335 m
2019/12/06 12:50 EKSN 061250Z 21011KT 8000 SCT006 BKN011 09/08 Q0993
 
EKYT - Alborg, Denmark
Distance from station: SØ 153km
Oppdatert: 07/12/2019 23:50
Overskyet
Overskyet
 Vind fra S
Vind: S 6 km/h
Temperatur: 4°C
Duggpunkt: 3°C
Fuktighet: 93%
Barometer: 999 hPa
Clouds: Overskyet
Visibility: 10 km
Cloud details: Few Clouds 732 m
Hovedsaklig skyet 1250 m
Overskyet 5182 m
2019/12/07 22:50 EKYT 072250Z AUTO 19003KT 9999 FEW024/// BKN041/// OVC170/// 04/03 Q0999
ENSN - Skien/Geiterygge, Norway
Distance from station: NØ 153km
Oppdatert: 09/11/2015 09:50
NOT Current
Klart
Klart
 Vind fra SSV
Vind: SSV 19 km/h, Vindkast: 41 km/h
Temperatur: 7°C
Wind Chill: 4°C
Duggpunkt: 3°C
Fuktighet: 76%
Barometer: 1000 hPa
Oversikt: Klart
Visibility: greater than 10 km
2015/11/09 08:50 ENSN 090850Z 20010G22KT 150V240 CAVOK 07/03 Q1000
 
ENZV - Stavanger/Sola(A, Norway
Distance from station: NV 166km
Oppdatert: 07/12/2019 23:50
Lett regn, Hovedsaklig skyet
Lett regn, Hovedsaklig skyet
 Vind fra ØSØ
Vind: ØSØ 22 km/h
Temperatur: 4°C
Wind Chill: -1°C
Duggpunkt: 1°C
Fuktighet: 81%
Barometer: 993 hPa
Oversikt: Lett regn
Clouds: Hovedsaklig skyet
Visibility: 10 km
Cloud details: Few Clouds 640 m
Delvis skyet 823 m
Hovedsaklig skyet 1433 m
2019/12/07 22:50 ENZV 072250Z 12012KT 9999 -RA FEW021 SCT027 BKN047 04/01 Q0993
ENNO - Notodden, Norway
Distance from station: NNØ 182km
Oppdatert: 06/12/2019 13:50
NOT Current
Tåke, Overskyet
Tåke, Overskyet
 Vind fra varies
Vind: varies 2 km/h
Temperatur: 0°C
Duggpunkt: 0°C
Fuktighet: 100%
Barometer: 988 hPa
Oversikt: Tåke
Clouds: Overskyet
Visibility: 0 km
Cloud details: Overskyet 61 m
2019/12/06 12:50 ENNO 061250Z VRB01KT 0400 FG VV002 00/M00 Q0988
 
ENTO - Torp (civ/Nor-Af, Norway
Distance from station: NØ 183km
Oppdatert: 07/12/2019 23:50
Few Clouds
Few Clouds
 Vind fra SV
Vind: SV 9 km/h
Temperatur: 0°C
Wind Chill: -3°C
Duggpunkt: -5°C
Fuktighet: 69%
Barometer: 996 hPa
Clouds: Few Clouds
Visibility: 10 km
Cloud details: Few Clouds 4877 m
2019/12/07 22:50 ENTO 072250Z AUTO 23005KT 9999 FEW160/// M00/M05 Q0996
EKKA - Karup (dan-Afb), Denmark
Distance from station: SSØ 209km
Oppdatert: 07/12/2019 23:50
Hovedsaklig skyet
Hovedsaklig skyet
 Vind fra SSV
Vind: SSV 15 km/h
Temperatur: 6°C
Wind Chill: 3°C
Duggpunkt: 6°C
Fuktighet: 100%
Barometer: 1000 hPa
Clouds: Hovedsaklig skyet
Visibility: 10 km
Cloud details: Few Clouds 183 m
Delvis skyet 1311 m
Hovedsaklig skyet 2225 m
Hovedsaklig skyet 3353 m
2019/12/07 22:50 EKKA 072250Z AUTO 21008KT 9999 FEW006/// SCT043/// BKN073/// BKN110/// 06/06 Q1000
 
ENHD - Haugesund/Karmoy, Norway
Distance from station: NV 216km
Oppdatert: 07/12/2019 23:50
Lett regn, Overskyet
Lett regn, Overskyet
 Vind fra SØ
Vind: SØ 30 km/h
Temperatur: 4°C
Wind Chill: -1°C
Duggpunkt: 2°C
Fuktighet: 87%
Barometer: 991 hPa
Oversikt: Lett regn
Clouds: Overskyet
Visibility: 10 km
Cloud details: Overskyet 366 m
2019/12/07 22:50 ENHD 072250Z AUTO 13016KT 9999 -RA VV012 04/02 Q0991
ENRY - Rygge (nor-Afb), Norway
Distance from station: NØ 216km
Oppdatert: 07/12/2019 23:50
Klart
Klart
 Vind fra SV
Vind: SV 11 km/h
Temperatur: 0°C
Wind Chill: -4°C
Duggpunkt: -5°C
Fuktighet: 69%
Barometer: 996 hPa
Clouds: Klart
Visibility: 10 km
2019/12/07 22:50 ENRY 072250Z AUTO 22006KT 9999NDV NCD 00/M05 Q0996
 
ESGP - Goteborg/Save (a, Sweden
Distance from station: Ø 230km
Oppdatert: 02/01/2017 11:20
NOT Current
Klart
Klart
 Vind fra calm
Vind: Stille
Temperatur: -2°C
Duggpunkt: -4°C
Fuktighet: 86%
Barometer: 1012 hPa
Clouds: Klart
Visibility: 10 km
2017/01/02 10:20 ESGP 021020Z AUTO 00000KT 9999 NCD M02/M04 Q1012
EKVJ - Stauning Airport, Denmark
Distance from station: S 233km
Oppdatert: 06/12/2019 20:50
NOT Current
Hovedsaklig skyet
Hovedsaklig skyet
 Vind fra SV
Vind: SV 22 km/h
Temperatur: 9°C
Wind Chill: 6°C
Duggpunkt: 9°C
Fuktighet: 100%
Barometer: 992 hPa
Clouds: Hovedsaklig skyet
Visibility: 6 km
Cloud details: Delvis skyet 152 m
Hovedsaklig skyet 305 m
2019/12/06 19:50 EKVJ 061950Z 22012KT 6000 SCT005 BKN010 09/09 Q0992
 
ENSO - Stord/Soerstokke, Norway
Distance from station: NV 246km
Oppdatert: 06/12/2019 19:50
NOT Current
Yr, Hovedsaklig skyet
Yr, Hovedsaklig skyet
 Vind fra varies
Vind: varies 2 km/h
Temperatur: 5°C
Duggpunkt: 5°C
Fuktighet: 100%
Barometer: 987 hPa
Oversikt: Yr
Clouds: Hovedsaklig skyet
Visibility: 10 km
Cloud details: Few Clouds 122 m
Delvis skyet 152 m
Hovedsaklig skyet 30 m
2019/12/06 18:50 ENSO 061850Z VRB01KT 9999 -DZ FEW004 SCT005 BKN0015 05/05 Q0987
EKAH - Tirstrup (civ/Mi, Denmark
Distance from station: SØ 252km
Oppdatert: 07/12/2019 23:50
Hovedsaklig skyet
Hovedsaklig skyet
 Vind fra SSV
Vind: SSV 6 km/h
Temperatur: 5°C
Duggpunkt: 4°C
Fuktighet: 93%
Barometer: 1001 hPa
Clouds: Hovedsaklig skyet
Visibility: 10 km
Cloud details: Delvis skyet 975 m
Hovedsaklig skyet 2042 m
2019/12/07 22:50 EKAH 072250Z AUTO 20003KT 9999NDV SCT032/// BKN067/// 05/04 Q1001
 
ESGT - Trollhattan (pvt, Sweden
Distance from station: Ø 255km
Oppdatert: 07/12/2019 23:50
Klart
Klart
 Vind fra S
Vind: S 9 km/h
Temperatur: -1°C
Wind Chill: -4°C
Duggpunkt: -3°C
Fuktighet: 86%
Barometer: 997 hPa
Clouds: Klart
Visibility: 10 km
2019/12/07 22:50 ESGT 072250Z AUTO 18005KT 9999 R15/P2000N R33///// NCD M01/M03 Q0997
ESGG - Goteborg/Landvet, Sweden
Distance from station: Ø 257km
Oppdatert: 07/12/2019 23:50
Klart
Klart
 Vind fra VSV
Vind: VSV 13 km/h
Temperatur: 2°C
Wind Chill: -1°C
Duggpunkt: -1°C
Fuktighet: 81%
Barometer: 998 hPa
Oversikt: Klart
Visibility: greater than 10 km
2019/12/07 22:50 ESGG 072250Z 24007KT CAVOK 02/M01 Q0998 R21/19//95
 
EKBI - Billund Airport, Denmark
Distance from station: SSØ 269km
Oppdatert: 07/12/2019 23:50
Overskyet
Overskyet
 Vind fra SV
Vind: SV 19 km/h
Temperatur: 7°C
Wind Chill: 4°C
Duggpunkt: 7°C
Fuktighet: 100%
Barometer: 1001 hPa
Clouds: Overskyet
Visibility: 10 km
Cloud details: Overskyet 183 m
2019/12/07 22:50 EKBI 072250Z AUTO 22010KT 190V250 9999 OVC006/// 07/07 Q1001
EKHN - Horns Rev B Heli, Denmark
Distance from station: S 274km
Oppdatert: 09/08/2016 14:20
NOT Current
Few Clouds
Few Clouds
 Vind fra VNV
Vind: VNV 50 km/h, Vindkast: 72 km/h
Temperatur: 14°C
Duggpunkt: 10°C
Fuktighet: 77%
Barometer: 1018 hPa
Clouds: Few Clouds
Visibility: 10 km
Cloud details: Few Clouds 1158 m
Few Clouds 2438 m
2016/08/09 12:20 EKHN 091220Z AUTO 29027G39KT 270V340 9999NDV FEW038/// FEW080/// 14/10 Q1018
 
ESIB - Satenas (swe-Afb, Sweden
Distance from station: Ø 277km
Oppdatert: 07/12/2019 23:50
Klart
Klart
 Vind fra SSV
Vind: SSV 17 km/h
Temperatur: 1°C
Wind Chill: -3°C
Duggpunkt: -1°C
Fuktighet: 87%
Barometer: 996 hPa
Clouds: Klart
Visibility: 10 km
2019/12/07 22:50 ESIB 072250Z AUTO 21009KT 9999 NCD 01/M01 Q0996
EKHR - Horns Rev B Heli, Denmark
Distance from station: S 282km
Oppdatert: 04/10/2016 06:20
NOT Current
Klart
Klart
 Vind fra Ø
Vind: Ø 4 km/h
Temperatur: 11°C
Duggpunkt: -49°C
Fuktighet: 0%
Barometer: 1038 hPa
Clouds: Klart
Visibility: 10 km
2016/10/04 04:20 EKHR 040420Z AUTO 08002KT 9999NDV NCD 11/M49 Q1038